createdAt,value
2018-08-07T00:02:09.439Z,25.02
2018-08-07T00:04:40.009Z,24.98
2018-08-07T00:07:10.513Z,24.94
2018-08-07T00:09:41.067Z,24.88
2018-08-07T00:12:11.699Z,24.85
2018-08-07T00:14:42.228Z,24.85
2018-08-07T00:17:12.747Z,24.69
2018-08-07T00:19:43.207Z,24.62
2018-08-07T00:22:13.609Z,24.72
2018-08-07T00:24:44.063Z,24.75
2018-08-07T00:27:14.498Z,24.74
2018-08-07T00:29:44.940Z,24.54
2018-08-07T00:32:15.458Z,24.56
2018-08-07T00:34:45.850Z,24.36
2018-08-07T00:37:16.338Z,24.26
2018-08-07T00:39:46.829Z,24.15
2018-08-07T00:42:17.299Z,24.23
2018-08-07T00:44:47.759Z,24.22
2018-08-07T00:47:18.200Z,24.12
2018-08-07T00:49:48.671Z,24.16
2018-08-07T00:52:19.103Z,24.04
2018-08-07T00:54:49.564Z,24.10
2018-08-07T00:57:20.108Z,23.96
2018-08-07T00:59:50.639Z,23.88
2018-08-07T01:02:21.077Z,23.97
2018-08-07T01:04:51.523Z,23.95
2018-08-07T01:07:22.023Z,24.01
2018-08-07T01:09:52.459Z,24.04
2018-08-07T01:12:22.912Z,24.10
2018-08-07T01:14:53.380Z,24.07
2018-08-07T01:17:23.802Z,24.05
2018-08-07T01:19:54.393Z,24.05
2018-08-07T01:22:24.859Z,24.00
2018-08-07T01:24:55.336Z,23.99
2018-08-07T01:27:25.885Z,23.96
2018-08-07T01:29:56.351Z,23.89
2018-08-07T01:32:26.904Z,23.85
2018-08-07T01:34:57.380Z,23.53
2018-08-07T01:37:27.872Z,23.63
2018-08-07T01:39:58.299Z,23.61
2018-08-07T01:42:28.774Z,23.47
2018-08-07T01:44:59.252Z,23.41
2018-08-07T01:47:29.670Z,23.33
2018-08-07T01:50:00.098Z,23.47
2018-08-07T01:52:30.740Z,23.44
2018-08-07T01:55:01.175Z,23.46
2018-08-07T01:57:31.715Z,23.43
2018-08-07T02:00:02.203Z,23.47
2018-08-07T02:02:32.796Z,23.51
2018-08-07T02:05:03.251Z,23.53
2018-08-07T02:07:33.737Z,23.51
2018-08-07T02:10:04.367Z,23.50
2018-08-07T02:12:34.764Z,23.49
2018-08-07T02:15:06.072Z,23.48
2018-08-07T02:17:36.519Z,23.49
2018-08-07T02:20:09.319Z,23.46
2018-08-07T02:22:40.442Z,23.48
2018-08-07T02:25:19.495Z,23.47
2018-08-07T02:27:49.972Z,23.45
2018-08-07T02:30:20.381Z,23.43
2018-08-07T02:32:50.920Z,23.32
2018-08-07T02:35:21.397Z,23.22
2018-08-07T02:37:51.875Z,23.22
2018-08-07T02:40:22.339Z,23.15
2018-08-07T02:42:52.775Z,23.20
2018-08-07T02:45:23.283Z,23.23
2018-08-07T02:47:53.815Z,23.20
2018-08-07T02:50:24.246Z,23.15
2018-08-07T02:52:54.768Z,23.20
2018-08-07T02:55:25.155Z,23.19
2018-08-07T02:57:55.680Z,23.17
2018-08-07T03:00:26.301Z,23.16
2018-08-07T03:02:56.776Z,23.17
2018-08-07T03:05:27.212Z,23.15
2018-08-07T03:07:57.756Z,23.13
2018-08-07T03:10:28.157Z,23.06
2018-08-07T03:12:58.619Z,23.07
2018-08-07T03:15:29.195Z,23.11
2018-08-07T03:17:59.688Z,23.09
2018-08-07T03:20:30.268Z,23.08
2018-08-07T03:23:00.680Z,23.04
2018-08-07T03:25:31.196Z,23.03
2018-08-07T03:28:01.711Z,22.97
2018-08-07T03:30:32.149Z,22.92
2018-08-07T03:33:02.695Z,22.90
2018-08-07T03:35:33.220Z,22.94
2018-08-07T03:38:03.727Z,22.96
2018-08-07T03:40:34.150Z,22.94
2018-08-07T03:43:04.692Z,22.97
2018-08-07T03:45:35.168Z,22.93
2018-08-07T03:48:05.876Z,22.95
2018-08-07T03:50:36.355Z,23.06
2018-08-07T03:53:06.967Z,23.07
2018-08-07T03:55:37.411Z,23.22
2018-08-07T03:58:07.971Z,23.31
2018-08-07T04:00:43.538Z,23.30
2018-08-07T04:03:14.104Z,23.40
2018-08-07T04:05:44.680Z,23.53
2018-08-07T04:08:15.248Z,23.58
2018-08-07T04:10:45.714Z,23.66
2018-08-07T04:13:16.292Z,23.79
2018-08-07T04:15:46.719Z,23.95
2018-08-07T04:18:17.296Z,24.24
2018-08-07T04:20:47.763Z,24.36
2018-08-07T04:23:18.182Z,24.31
2018-08-07T04:25:48.612Z,24.54
2018-08-07T04:28:19.028Z,24.64
2018-08-07T04:30:49.473Z,24.81
2018-08-07T04:33:19.907Z,24.75
2018-08-07T04:35:50.422Z,24.84
2018-08-07T04:38:20.924Z,25.20
2018-08-07T04:40:51.356Z,25.52
2018-08-07T04:43:21.798Z,25.42
2018-08-07T04:45:52.245Z,25.70
2018-08-07T04:48:22.745Z,25.78
2018-08-07T04:50:53.254Z,25.78
2018-08-07T04:53:23.863Z,25.98
2018-08-07T04:55:54.291Z,26.21
2018-08-07T04:58:24.764Z,26.34
2018-08-07T05:00:57.768Z,26.38
2018-08-07T05:03:28.227Z,26.48
2018-08-07T05:05:58.747Z,26.54
2018-08-07T05:08:29.312Z,26.67
2018-08-07T05:10:59.838Z,27.00
2018-08-07T05:13:31.191Z,27.18
2018-08-07T05:16:01.649Z,27.04
2018-08-07T05:18:32.262Z,27.30
2018-08-07T05:21:02.719Z,27.39
2018-08-07T05:23:33.339Z,27.57
2018-08-07T05:26:03.887Z,27.53
2018-08-07T05:28:34.513Z,27.92
2018-08-07T05:31:05.025Z,27.80
2018-08-07T05:33:35.666Z,27.84
2018-08-07T05:36:06.208Z,27.83
2018-08-07T05:38:36.791Z,28.08
2018-08-07T05:41:07.305Z,28.04
2018-08-07T05:43:37.735Z,28.27
2018-08-07T05:46:08.227Z,28.26
2018-08-07T05:48:38.839Z,28.45
2018-08-07T05:51:09.745Z,28.57
2018-08-07T05:53:39.825Z,28.67
2018-08-07T05:56:10.336Z,28.77
2018-08-07T05:58:40.753Z,28.92
2018-08-07T06:01:11.343Z,28.92
2018-08-07T06:03:41.905Z,29.14
2018-08-07T06:06:12.468Z,29.40
2018-08-07T06:08:42.919Z,29.45
2018-08-07T06:11:13.540Z,29.50
2018-08-07T06:13:44.051Z,29.52
2018-08-07T06:16:14.724Z,29.01
2018-08-07T06:18:45.201Z,29.78
2018-08-07T06:21:15.723Z,30.09
2018-08-07T06:23:46.376Z,30.18
2018-08-07T06:26:16.943Z,29.69
2018-08-07T06:28:47.495Z,30.37
2018-08-07T06:31:18.116Z,30.50
2018-08-07T06:33:49.650Z,30.45
2018-08-07T06:36:20.280Z,30.92
2018-08-07T06:38:50.920Z,31.14
2018-08-07T06:41:21.617Z,31.18
2018-08-07T06:43:52.055Z,31.36
2018-08-07T06:46:22.601Z,31.46
2018-08-07T06:48:53.205Z,31.72
2018-08-07T06:51:23.828Z,31.33
2018-08-07T06:53:54.340Z,31.58
2018-08-07T06:56:24.802Z,31.61
2018-08-07T06:58:55.327Z,31.81
2018-08-07T07:01:25.856Z,32.13
2018-08-07T07:03:56.389Z,32.00
2018-08-07T07:06:26.845Z,31.88
2018-08-07T07:08:57.479Z,32.11
2018-08-07T07:11:28.123Z,32.15
2018-08-07T07:13:59.067Z,31.98
2018-08-07T07:16:29.598Z,32.20
2018-08-07T07:19:00.143Z,32.35
2018-08-07T07:21:30.659Z,31.71
2018-08-07T07:24:01.195Z,32.53
2018-08-07T07:26:31.816Z,32.28
2018-08-07T07:29:02.489Z,32.32
2018-08-07T07:31:32.948Z,32.67
2018-08-07T07:34:03.450Z,32.71
2018-08-07T07:36:34.002Z,32.63
2018-08-07T07:39:06.116Z,32.93
2018-08-07T07:41:36.597Z,32.51
2018-08-07T07:44:07.120Z,32.62
2018-08-07T07:46:37.691Z,32.67
2018-08-07T07:49:08.199Z,32.70
2018-08-07T07:51:38.754Z,32.82
2018-08-07T07:54:09.443Z,32.81
2018-08-07T07:56:39.927Z,32.22
2018-08-07T07:59:10.476Z,32.70
2018-08-07T08:01:40.939Z,32.69
2018-08-07T08:04:11.507Z,32.64
2018-08-07T08:06:41.935Z,32.71
2018-08-07T08:09:12.497Z,32.75
2018-08-07T08:11:42.975Z,32.59
2018-08-07T08:14:13.550Z,32.85
2018-08-07T08:16:44.285Z,32.80
2018-08-07T08:19:14.771Z,32.90
2018-08-07T08:21:45.392Z,32.95
2018-08-07T08:24:16.594Z,33.04
2018-08-07T08:26:47.164Z,33.15
2018-08-07T08:29:17.715Z,33.37
2018-08-07T08:31:48.293Z,33.39
2018-08-07T08:34:19.431Z,33.36
2018-08-07T08:36:50.252Z,33.33
2018-08-07T08:39:20.884Z,33.30
2018-08-07T08:41:51.580Z,33.45
2018-08-07T08:44:22.072Z,33.34
2018-08-07T08:46:52.663Z,33.33
2018-08-07T08:49:23.315Z,33.23
2018-08-07T08:51:53.939Z,33.30
2018-08-07T08:54:24.543Z,33.44
2018-08-07T08:56:55.076Z,33.52
2018-08-07T08:59:25.732Z,33.48
2018-08-07T09:01:56.428Z,33.66
2018-08-07T09:04:27.040Z,33.76
2018-08-07T09:06:57.700Z,33.78
2018-08-07T09:09:28.189Z,34.00
2018-08-07T09:11:58.805Z,33.94
2018-08-07T09:14:29.384Z,33.86
2018-08-07T09:17:00.387Z,34.07
2018-08-07T09:19:30.979Z,34.12
2018-08-07T09:22:01.639Z,34.30
2018-08-07T09:24:32.122Z,34.46
2018-08-07T09:27:02.697Z,34.46
2018-08-07T09:29:33.110Z,34.46
2018-08-07T09:32:03.629Z,34.50
2018-08-07T09:34:34.077Z,34.53
2018-08-07T09:37:04.599Z,34.63
2018-08-07T09:39:35.137Z,34.80
2018-08-07T09:42:05.643Z,34.63
2018-08-07T09:44:36.363Z,34.69
2018-08-07T09:47:06.908Z,34.82
2018-08-07T09:49:37.540Z,34.64
2018-08-07T09:52:08.146Z,34.53
2018-08-07T09:54:38.650Z,34.81
2018-08-07T09:57:09.150Z,34.90
2018-08-07T09:59:39.874Z,35.05
2018-08-07T10:02:15.508Z,34.54
2018-08-07T10:04:46.023Z,34.52
2018-08-07T10:07:17.419Z,34.56
2018-08-07T10:09:47.897Z,34.72
2018-08-07T10:12:18.398Z,34.69
2018-08-07T10:14:48.891Z,34.84
2018-08-07T10:17:19.372Z,35.10
2018-08-07T10:19:49.871Z,35.22
2018-08-07T10:22:20.317Z,35.10
2018-08-07T10:24:50.842Z,35.28
2018-08-07T10:27:21.350Z,34.98
2018-08-07T10:29:51.855Z,35.15
2018-08-07T10:32:22.308Z,35.14
2018-08-07T10:34:52.839Z,35.19
2018-08-07T10:37:23.390Z,35.09
2018-08-07T10:39:53.993Z,35.36
2018-08-07T10:42:24.571Z,35.10
2018-08-07T10:44:55.262Z,35.23
2018-08-07T10:47:25.861Z,35.33
2018-08-07T10:49:56.445Z,35.30
2018-08-07T10:52:26.982Z,35.23
2018-08-07T10:54:57.889Z,35.56
2018-08-07T10:57:28.792Z,35.74
2018-08-07T10:59:59.371Z,35.77
2018-08-07T11:02:30.027Z,35.54
2018-08-07T11:05:00.555Z,35.70
2018-08-07T11:07:31.216Z,35.87
2018-08-07T11:10:02.152Z,35.86
2018-08-07T11:12:32.632Z,35.93
2018-08-07T11:15:03.236Z,35.64
2018-08-07T11:17:33.812Z,35.71
2018-08-07T11:20:04.681Z,35.82
2018-08-07T11:22:35.456Z,35.31
2018-08-07T11:25:06.271Z,35.77
2018-08-07T11:27:36.894Z,35.83
2018-08-07T11:30:10.376Z,35.83
2018-08-07T11:32:40.907Z,35.79
2018-08-07T11:35:11.619Z,35.83
2018-08-07T11:37:42.727Z,35.95
2018-08-07T11:40:15.488Z,35.97
2018-08-07T11:42:47.223Z,35.94
2018-08-07T11:45:19.075Z,35.89
2018-08-07T11:47:49.703Z,35.84
2018-08-07T11:50:23.396Z,35.88
2018-08-07T11:52:54.077Z,35.86
2018-08-07T11:55:25.298Z,35.79
2018-08-07T11:57:57.231Z,35.76
2018-08-07T12:00:37.212Z,35.47
2018-08-07T12:03:09.228Z,35.66
2018-08-07T12:05:39.862Z,35.75
2018-08-07T12:08:10.504Z,35.79
2018-08-07T12:10:41.014Z,35.83
2018-08-07T12:13:11.543Z,35.73
2018-08-07T12:15:42.105Z,35.79
2018-08-07T12:18:12.641Z,35.62
2018-08-07T12:20:43.199Z,35.28
2018-08-07T12:23:13.659Z,35.73
2018-08-07T12:25:44.119Z,35.80
2018-08-07T12:28:14.643Z,35.87
2018-08-07T12:30:46.600Z,35.94
2018-08-07T12:33:17.235Z,35.83
2018-08-07T12:35:47.931Z,35.86
2018-08-07T12:38:18.427Z,36.08
2018-08-07T12:40:48.984Z,36.11
2018-08-07T12:43:19.479Z,36.11
2018-08-07T12:45:50.068Z,36.15
2018-08-07T12:48:20.499Z,36.16
2018-08-07T12:50:51.093Z,36.22
2018-08-07T12:53:21.721Z,36.35
2018-08-07T12:55:52.323Z,36.14
2018-08-07T12:58:22.875Z,36.30
2018-08-07T13:00:53.625Z,36.49
2018-08-07T13:03:24.232Z,36.20
2018-08-07T13:05:55.021Z,36.41
2018-08-07T13:08:25.609Z,36.56
2018-08-07T13:10:56.382Z,36.54
2018-08-07T13:13:26.863Z,36.49
2018-08-07T13:15:57.435Z,36.65
2018-08-07T13:18:27.929Z,36.73
2018-08-07T13:20:58.603Z,36.72
2018-08-07T13:23:29.232Z,36.60
2018-08-07T13:25:59.806Z,36.54
2018-08-07T13:28:30.475Z,36.57
2018-08-07T13:31:01.109Z,36.51
2018-08-07T13:33:31.664Z,36.72
2018-08-07T13:36:02.203Z,36.55
2018-08-07T13:38:32.863Z,36.64
2018-08-07T13:41:03.362Z,36.81
2018-08-07T13:43:33.821Z,36.72
2018-08-07T13:46:04.427Z,36.89
2018-08-07T13:48:34.984Z,36.71
2018-08-07T13:51:05.703Z,36.75
2018-08-07T13:53:36.318Z,36.67
2018-08-07T13:56:07.865Z,36.53
2018-08-07T13:58:38.582Z,36.53
2018-08-07T14:01:09.475Z,36.66
2018-08-07T14:03:40.014Z,36.42
2018-08-07T14:06:10.645Z,36.49
2018-08-07T14:08:41.246Z,36.56
2018-08-07T14:11:11.862Z,36.45
2018-08-07T14:13:42.385Z,36.35
2018-08-07T14:16:12.868Z,36.10
2018-08-07T14:18:43.422Z,35.96
2018-08-07T14:21:13.963Z,35.80
2018-08-07T14:23:44.464Z,35.58
2018-08-07T14:26:15.136Z,35.45
2018-08-07T14:28:45.670Z,35.44
2018-08-07T14:31:16.284Z,35.38
2018-08-07T14:33:46.983Z,35.27
2018-08-07T14:36:17.458Z,34.61
2018-08-07T14:38:47.892Z,34.92
2018-08-07T14:41:18.342Z,34.96
2018-08-07T14:43:48.787Z,34.87
2018-08-07T14:46:19.348Z,34.83
2018-08-07T14:48:49.840Z,34.80
2018-08-07T14:51:20.540Z,34.82
2018-08-07T14:53:50.946Z,34.68
2018-08-07T14:56:21.448Z,34.57
2018-08-07T14:58:51.922Z,34.61
2018-08-07T15:01:22.439Z,34.60
2018-08-07T15:03:52.916Z,34.02
2018-08-07T15:06:23.581Z,34.51
2018-08-07T15:08:54.137Z,34.46
2018-08-07T15:11:24.687Z,34.46
2018-08-07T15:13:55.323Z,34.38
2018-08-07T15:16:25.832Z,34.28
2018-08-07T15:18:56.231Z,34.12
2018-08-07T15:21:26.739Z,34.05
2018-08-07T15:23:57.127Z,33.47
2018-08-07T15:26:27.591Z,33.93
2018-08-07T15:28:58.115Z,33.87
2018-08-07T15:31:28.599Z,33.77
2018-08-07T15:33:59.048Z,33.76
2018-08-07T15:36:29.543Z,33.81
2018-08-07T15:39:00.036Z,33.79
2018-08-07T15:41:30.430Z,33.73
2018-08-07T15:44:00.938Z,33.66
2018-08-07T15:46:31.328Z,33.61
2018-08-07T15:49:01.796Z,33.52
2018-08-07T15:51:32.272Z,33.50
2018-08-07T15:54:02.772Z,33.48
2018-08-07T15:56:33.248Z,33.44
2018-08-07T15:59:03.767Z,33.40
2018-08-07T16:01:34.243Z,33.34
2018-08-07T16:04:04.730Z,33.28
2018-08-07T16:06:35.302Z,33.27
2018-08-07T16:09:08.639Z,33.22
2018-08-07T16:11:39.144Z,33.18
2018-08-07T16:14:09.728Z,33.11
2018-08-07T16:16:40.293Z,33.13
2018-08-07T16:19:10.735Z,33.07
2018-08-07T16:21:41.265Z,33.11
2018-08-07T16:24:11.790Z,33.07
2018-08-07T16:26:42.320Z,33.07
2018-08-07T16:29:12.784Z,33.05
2018-08-07T16:31:43.608Z,32.89
2018-08-07T16:34:14.300Z,32.91
2018-08-07T16:36:44.791Z,32.88
2018-08-07T16:39:15.465Z,32.76
2018-08-07T16:41:45.948Z,32.80
2018-08-07T16:44:16.398Z,32.68
2018-08-07T16:46:46.862Z,32.60
2018-08-07T16:49:17.372Z,32.59
2018-08-07T16:51:47.848Z,32.42
2018-08-07T16:54:18.346Z,32.35
2018-08-07T16:56:48.756Z,32.24
2018-08-07T16:59:19.284Z,32.26
2018-08-07T17:01:49.725Z,32.21
2018-08-07T17:04:20.187Z,31.43
2018-08-07T17:06:50.655Z,32.03
2018-08-07T17:09:21.095Z,31.99
2018-08-07T17:11:51.536Z,31.87
2018-08-07T17:14:22.136Z,31.83
2018-08-07T17:16:52.596Z,31.84
2018-08-07T17:19:23.080Z,31.75
2018-08-07T17:21:53.635Z,31.65
2018-08-07T17:24:24.183Z,31.59
2018-08-07T17:26:54.719Z,31.44
2018-08-07T17:29:25.247Z,31.36
2018-08-07T17:31:55.674Z,31.22
2018-08-07T17:34:26.167Z,31.15
2018-08-07T17:36:56.632Z,31.09
2018-08-07T17:39:27.152Z,31.04
2018-08-07T17:41:57.648Z,30.94
2018-08-07T17:44:28.082Z,30.95
2018-08-07T17:46:58.606Z,30.88
2018-08-07T17:49:29.177Z,30.85
2018-08-07T17:51:59.721Z,30.77
2018-08-07T17:54:30.228Z,30.66
2018-08-07T17:57:00.772Z,30.65
2018-08-07T17:59:31.200Z,30.59
2018-08-07T18:02:01.697Z,30.54
2018-08-07T18:04:32.201Z,30.48
2018-08-07T18:07:02.773Z,30.43
2018-08-07T18:09:33.276Z,30.35
2018-08-07T18:12:03.872Z,30.30
2018-08-07T18:14:34.339Z,30.24
2018-08-07T18:17:05.100Z,30.08
2018-08-07T18:19:35.599Z,30.02
2018-08-07T18:22:06.131Z,29.92
2018-08-07T18:24:36.667Z,29.77
2018-08-07T18:27:07.238Z,29.62
2018-08-07T18:29:37.683Z,29.58
2018-08-07T18:32:08.458Z,29.59
2018-08-07T18:34:38.918Z,29.52
2018-08-07T18:37:09.395Z,29.46
2018-08-07T18:39:39.858Z,29.38
2018-08-07T18:42:10.363Z,29.30
2018-08-07T18:44:40.834Z,29.19
2018-08-07T18:47:11.324Z,28.45
2018-08-07T18:49:41.746Z,29.02
2018-08-07T18:52:12.278Z,29.03
2018-08-07T18:54:42.854Z,28.98
2018-08-07T18:57:13.395Z,28.84
2018-08-07T18:59:43.828Z,28.80
2018-08-07T19:02:14.412Z,28.76
2018-08-07T19:04:44.885Z,28.71
2018-08-07T19:07:15.507Z,28.74
2018-08-07T19:09:45.961Z,28.73
2018-08-07T19:12:16.512Z,28.73
2018-08-07T19:14:46.984Z,28.70
2018-08-07T19:17:17.403Z,28.64
2018-08-07T19:19:47.924Z,28.66
2018-08-07T19:22:18.443Z,28.63
2018-08-07T19:24:48.947Z,28.49
2018-08-07T19:27:19.429Z,28.46
2018-08-07T19:29:49.919Z,28.36
2018-08-07T19:32:20.462Z,28.19
2018-08-07T19:34:50.891Z,28.26
2018-08-07T19:37:21.429Z,28.24
2018-08-07T19:39:51.915Z,28.24
2018-08-07T19:42:22.335Z,28.24
2018-08-07T19:44:52.866Z,28.15
2018-08-07T19:47:23.392Z,28.13
2018-08-07T19:49:53.875Z,28.09
2018-08-07T19:52:24.517Z,28.05
2018-08-07T19:54:54.978Z,28.01
2018-08-07T19:57:25.475Z,28.04
2018-08-07T19:59:55.874Z,28.01
2018-08-07T20:02:26.396Z,27.97
2018-08-07T20:04:56.864Z,27.99
2018-08-07T20:07:27.404Z,27.90
2018-08-07T20:09:57.923Z,27.82
2018-08-07T20:12:28.431Z,27.75
2018-08-07T20:14:58.857Z,27.73
2018-08-07T20:17:29.397Z,27.66
2018-08-07T20:19:59.859Z,27.56
2018-08-07T20:22:30.346Z,27.56
2018-08-07T20:25:00.788Z,27.51
2018-08-07T20:27:31.400Z,27.48
2018-08-07T20:30:01.900Z,27.38
2018-08-07T20:32:32.347Z,27.36
2018-08-07T20:35:02.834Z,27.34
2018-08-07T20:37:33.255Z,26.70
2018-08-07T20:40:03.902Z,27.37
2018-08-07T20:42:34.314Z,27.37
2018-08-07T20:45:05.410Z,27.36
2018-08-07T20:47:35.914Z,27.30
2018-08-07T20:50:08.408Z,27.28
2018-08-07T20:52:38.916Z,27.29
2018-08-07T20:55:09.363Z,27.25
2018-08-07T20:57:39.912Z,27.25
2018-08-07T21:00:13.227Z,27.23
2018-08-07T21:02:43.675Z,27.18
2018-08-07T21:05:14.115Z,27.18
2018-08-07T21:07:44.707Z,27.21
2018-08-07T21:10:17.600Z,27.17
2018-08-07T21:12:48.227Z,27.10
2018-08-07T21:15:18.760Z,27.17
2018-08-07T21:17:49.275Z,27.17
2018-08-07T21:20:20.866Z,27.16
2018-08-07T21:22:51.363Z,27.20
2018-08-07T21:25:23.206Z,27.27
2018-08-07T21:27:57.105Z,27.32
2018-08-07T21:30:29.899Z,27.36
2018-08-07T21:33:00.446Z,27.29
2018-08-07T21:35:31.015Z,27.23
2018-08-07T21:38:01.557Z,27.19
2018-08-07T21:40:32.123Z,27.21
2018-08-07T21:43:02.555Z,27.22
2018-08-07T21:45:33.079Z,27.21
2018-08-07T21:48:03.636Z,27.17
2018-08-07T21:50:34.024Z,27.18
2018-08-07T21:53:04.607Z,27.14
2018-08-07T21:55:35.037Z,27.12
2018-08-07T21:58:05.629Z,27.06
2018-08-07T22:00:44.594Z,26.97
2018-08-07T22:03:15.131Z,26.88
2018-08-07T22:05:45.663Z,26.91
2018-08-07T22:08:16.475Z,26.89
2018-08-07T22:10:46.905Z,26.82
2018-08-07T22:13:17.390Z,26.85
2018-08-07T22:15:47.927Z,26.86
2018-08-07T22:18:18.442Z,26.83
2018-08-07T22:20:48.920Z,26.80
2018-08-07T22:23:19.387Z,26.83
2018-08-07T22:25:49.934Z,26.84
2018-08-07T22:28:20.456Z,26.81
2018-08-07T22:30:50.932Z,26.79
2018-08-07T22:33:21.427Z,26.72
2018-08-07T22:35:51.854Z,26.66
2018-08-07T22:38:22.278Z,26.67
2018-08-07T22:40:52.743Z,26.66
2018-08-07T22:43:23.344Z,26.62
2018-08-07T22:45:53.804Z,26.64
2018-08-07T22:48:24.444Z,26.64
2018-08-07T22:50:54.844Z,26.63
2018-08-07T22:53:25.283Z,26.57
2018-08-07T22:55:55.712Z,26.53
2018-08-07T22:58:26.232Z,26.50
2018-08-07T23:00:56.759Z,26.47
2018-08-07T23:03:27.256Z,26.41
2018-08-07T23:05:57.743Z,26.38
2018-08-07T23:08:28.235Z,26.35
2018-08-07T23:10:58.600Z,26.25
2018-08-07T23:13:29.112Z,26.26
2018-08-07T23:15:59.514Z,26.18
2018-08-07T23:18:29.961Z,26.06
2018-08-07T23:21:00.443Z,26.06
2018-08-07T23:23:30.918Z,26.04
2018-08-07T23:26:01.334Z,26.05
2018-08-07T23:28:31.754Z,26.03
2018-08-07T23:31:02.309Z,26.01
2018-08-07T23:33:32.784Z,26.01
2018-08-07T23:36:03.298Z,25.97
2018-08-07T23:38:33.696Z,25.94
2018-08-07T23:41:04.167Z,25.87
2018-08-07T23:43:34.610Z,25.82
2018-08-07T23:46:05.078Z,25.81
2018-08-07T23:48:35.641Z,25.86
2018-08-07T23:51:06.115Z,25.92
2018-08-07T23:53:36.586Z,25.89
2018-08-07T23:56:07.306Z,25.91
2018-08-07T23:58:37.748Z,25.82
